sensor_id;sensor_type;location;lat;lon;timestamp;pressure;altitude;pressure_sealevel;temperature;humidity
5996;BME280;3026;53.612;7.278;2022-08-11T00:00:21;102448.03;;;17.65;100.00
5996;BME280;3026;53.612;7.278;2022-08-11T00:03:03;102447.16;;;17.64;100.00
5996;BME280;3026;53.612;7.278;2022-08-11T00:05:31;102446.31;;;17.64;100.00
5996;BME280;3026;53.612;7.278;2022-08-11T00:07:58;102446.31;;;17.64;100.00
5996;BME280;3026;53.612;7.278;2022-08-11T00:10:28;102448.03;;;17.65;100.00
5996;BME280;3026;53.612;7.278;2022-08-11T00:13:00;102442.50;;;17.65;100.00
5996;BME280;3026;53.612;7.278;2022-08-11T00:15:38;102440.13;;;17.62;100.00
5996;BME280;3026;53.612;7.278;2022-08-11T00:18:07;102448.38;;;17.62;100.00
5996;BME280;3026;53.612;7.278;2022-08-11T00:20:39;102445.63;;;17.62;100.00
5996;BME280;3026;53.612;7.278;2022-08-11T00:23:09;102445.63;;;17.62;100.00
5996;BME280;3026;53.612;7.278;2022-08-11T00:25:40;102444.78;;;17.61;100.00
5996;BME280;3026;53.612;7.278;2022-08-11T00:28:23;102448.72;;;17.59;100.00
5996;BME280;3026;53.612;7.278;2022-08-11T00:30:51;102440.63;;;17.57;100.00
5996;BME280;3026;53.612;7.278;2022-08-11T00:33:19;102434.25;;;17.57;100.00
5996;BME280;3026;53.612;7.278;2022-08-11T00:35:48;102433.41;;;17.56;100.00
5996;BME280;3026;53.612;7.278;2022-08-11T00:38:16;102434.25;;;17.57;100.00
5996;BME280;3026;53.612;7.278;2022-08-11T00:40:55;102427.03;;;17.56;100.00
5996;BME280;3026;53.612;7.278;2022-08-11T00:43:37;102431.69;;;17.55;100.00
5996;BME280;3026;53.612;7.278;2022-08-11T00:46:11;102423.59;;;17.54;100.00
5996;BME280;3026;53.612;7.278;2022-08-11T00:48:49;102435.66;;;17.53;100.00
5996;BME280;3026;53.612;7.278;2022-08-11T00:51:24;102431.88;;;17.54;100.00
5996;BME280;3026;53.612;7.278;2022-08-11T00:54:26;102429.47;;;17.50;100.00
5996;BME280;3026;53.612;7.278;2022-08-11T00:57:21;102431.56;;;17.48;100.00
5996;BME280;3026;53.612;7.278;2022-08-11T01:00:13;102432.56;;;17.47;100.00
5996;BME280;3026;53.612;7.278;2022-08-11T01:03:04;102434.31;;;17.48;100.00
5996;BME280;3026;53.612;7.278;2022-08-11T01:06:05;102432.75;;;17.46;100.00
5996;BME280;3026;53.612;7.278;2022-08-11T01:09:13;102424.66;;;17.44;100.00
5996;BME280;3026;53.612;7.278;2022-08-11T01:12:08;102424.66;;;17.44;100.00
5996;BME280;3026;53.612;7.278;2022-08-11T01:30:09;102424.19;;;17.33;100.00
5996;BME280;3026;53.612;7.278;2022-08-11T01:36:05;102413.72;;;17.28;100.00
5996;BME280;3026;53.612;7.278;2022-08-11T01:39:08;102426.31;;;17.23;100.00
5996;BME280;3026;53.612;7.278;2022-08-11T01:41:58;102424.59;;;17.21;100.00
5996;BME280;3026;53.612;7.278;2022-08-11T01:45:15;102420.00;;;17.14;100.00
5996;BME280;3026;53.612;7.278;2022-08-11T01:47:51;102411.72;;;17.14;100.00
5996;BME280;3026;53.612;7.278;2022-08-11T01:50:26;102422.75;;;17.14;100.00
5996;BME280;3026;53.612;7.278;2022-08-11T01:53:07;102412.72;;;17.13;100.00
5996;BME280;3026;53.612;7.278;2022-08-11T01:55:41;102417.56;;;17.11;100.00
5996;BME280;3026;53.612;7.278;2022-08-11T01:58:16;102418.78;;;17.08;100.00
5996;BME280;3026;53.612;7.278;2022-08-11T02:00:54;102421.72;;;17.07;100.00
5996;BME280;3026;53.612;7.278;2022-08-11T02:03:31;102411.75;;;17.06;100.00
5996;BME280;3026;53.612;7.278;2022-08-11T02:06:09;102418.28;;;17.05;100.00
5996;BME280;3026;53.612;7.278;2022-08-11T02:09:03;102420.38;;;17.03;100.00
5996;BME280;3026;53.612;7.278;2022-08-11T02:11:35;102418.63;;;17.02;100.00
5996;BME280;3026;53.612;7.278;2022-08-11T02:14:11;102409.69;;;17.00;100.00
5996;BME280;3026;53.612;7.278;2022-08-11T02:16:54;102420.03;;;16.98;100.00
5996;BME280;3026;53.612;7.278;2022-08-11T02:19:32;102417.63;;;16.95;100.00
5996;BME280;3026;53.612;7.278;2022-08-11T02:22:24;102414.19;;;16.92;100.00
5996;BME280;3026;53.612;7.278;2022-08-11T02:25:22;102412.81;;;16.88;100.00
5996;BME280;3026;53.612;7.278;2022-08-11T02:27:58;102416.59;;;16.87;100.00
5996;BME280;3026;53.612;7.278;2022-08-11T02:30:34;102407.66;;;16.85;100.00
5996;BME280;3026;53.612;7.278;2022-08-11T02:33:13;102406.97;;;16.83;100.00
5996;BME280;3026;53.612;7.278;2022-08-11T02:35:58;102406.47;;;16.80;100.00
5996;BME280;3026;53.612;7.278;2022-08-11T02:38:31;102406.63;;;16.78;100.00
5996;BME280;3026;53.612;7.278;2022-08-11T02:41:08;102398.72;;;16.75;100.00
5996;BME280;3026;53.612;7.278;2022-08-11T02:44:09;102400.13;;;16.71;100.00
5996;BME280;3026;53.612;7.278;2022-08-11T02:46:50;102400.13;;;16.71;100.00
5996;BME280;3026;53.612;7.278;2022-08-11T02:49:32;102402.50;;;16.66;100.00
5996;BME280;3026;53.612;7.278;2022-08-11T02:52:35;102402.00;;;16.62;100.00
5996;BME280;3026;53.612;7.278;2022-08-11T02:55:17;102392.19;;;16.60;100.00
5996;BME280;3026;53.612;7.278;2022-08-11T02:57:52;102394.25;;;16.58;100.00
5996;BME280;3026;53.612;7.278;2022-08-11T03:00:20;102391.84;;;16.55;100.00
5996;BME280;3026;53.612;7.278;2022-08-11T03:02:59;102402.16;;;16.53;100.00
5996;BME280;3026;53.612;7.278;2022-08-11T03:06:04;102388.06;;;16.48;100.00
5996;BME280;3026;53.612;7.278;2022-08-11T03:08:46;102391.88;;;16.47;100.00
5996;BME280;3026;53.612;7.278;2022-08-11T03:11:24;102389.28;;;16.45;100.00
5996;BME280;3026;53.612;7.278;2022-08-11T03:14:16;102393.94;;;16.45;100.00
5996;BME280;3026;53.612;7.278;2022-08-11T03:17:15;102387.03;;;16.41;100.00
5996;BME280;3026;53.612;7.278;2022-08-11T03:19:50;102392.91;;;16.38;100.00
5996;BME280;3026;53.612;7.278;2022-08-11T03:22:24;102394.97;;;16.36;100.00
5996;BME280;3026;53.612;7.278;2022-08-11T03:24:57;102391.53;;;16.33;100.00
5996;BME280;3026;53.612;7.278;2022-08-11T03:27:38;102393.56;;;16.31;100.00
5996;BME280;3026;53.612;7.278;2022-08-11T03:30:13;102390.16;;;16.29;100.00
5996;BME280;3026;53.612;7.278;2022-08-11T03:32:50;102397.72;;;16.27;100.00
5996;BME280;3026;53.612;7.278;2022-08-11T03:35:39;102396.00;;;16.26;100.00
5996;BME280;3026;53.612;7.278;2022-08-11T03:38:10;102385.34;;;16.23;100.00
5996;BME280;3026;53.612;7.278;2022-08-11T03:44:08;102397.03;;;16.17;100.00
5996;BME280;3026;53.612;7.278;2022-08-11T03:46:58;102399.09;;;16.15;100.00
5996;BME280;3026;53.612;7.278;2022-08-11T03:49:37;102395.66;;;16.13;100.00
5996;BME280;3026;53.612;7.278;2022-08-11T03:52:15;102392.22;;;16.11;100.00
5996;BME280;3026;53.612;7.278;2022-08-11T03:54:53;102396.88;;;16.11;100.00
5996;BME280;3026;53.612;7.278;2022-08-11T04:01:08;102398.75;;;16.02;100.00
5996;BME280;3026;53.612;7.278;2022-08-11T04:03:57;102395.31;;;16.00;100.00
5996;BME280;3026;53.612;7.278;2022-08-11T04:07:11;102398.25;;;15.98;100.00
5996;BME280;3026;53.612;7.278;2022-08-11T04:10:11;102396.50;;;15.97;100.00
5996;BME280;3026;53.612;7.278;2022-08-11T04:13:12;102395.97;;;15.94;100.00
5996;BME280;3026;53.612;7.278;2022-08-11T04:16:23;102392.53;;;15.92;100.00
5996;BME280;3026;53.612;7.278;2022-08-11T04:19:21;102393.59;;;15.91;100.00
5996;BME280;3026;53.612;7.278;2022-08-11T04:22:52;102390.16;;;15.89;100.00
5996;BME280;3026;53.612;7.278;2022-08-11T04:25:57;102394.97;;;15.87;100.00
5996;BME280;3026;53.612;7.278;2022-08-11T04:28:43;102391.19;;;15.88;100.00
5996;BME280;3026;53.612;7.278;2022-08-11T04:31:34;102387.72;;;15.86;100.00
5996;BME280;3026;53.612;7.278;2022-08-11T04:34:36;102386.84;;;15.85;100.00
5996;BME280;3026;53.612;7.278;2022-08-11T04:37:17;102381.34;;;15.85;100.00
5996;BME280;3026;53.612;7.278;2022-08-11T04:40:08;102390.63;;;15.84;100.00
5996;BME280;3026;53.612;7.278;2022-08-11T04:43:15;102388.91;;;15.83;100.00
5996;BME280;3026;53.612;7.278;2022-08-11T04:46:00;102383.97;;;15.87;100.00
5996;BME280;3026;53.612;7.278;2022-08-11T04:48:54;102389.47;;;15.87;100.00
5996;BME280;3026;53.612;7.278;2022-08-11T04:51:55;102385.84;;;15.86;100.00
5996;BME280;3026;53.612;7.278;2022-08-11T04:55:14;102385.69;;;15.88;100.00
5996;BME280;3026;53.612;7.278;2022-08-11T04:58:11;102388.06;;;15.91;100.00
5996;BME280;3026;53.612;7.278;2022-08-11T05:01:16;102385.66;;;15.96;100.00
5996;BME280;3026;53.612;7.278;2022-08-11T05:10:32;102382.94;;;16.12;100.00
5996;BME280;3026;53.612;7.278;2022-08-11T05:13:06;102394.28;;;16.17;100.00
5996;BME280;3026;53.612;7.278;2022-08-11T05:15:51;102392.91;;;16.21;100.00
5996;BME280;3026;53.612;7.278;2022-08-11T05:18:37;102392.22;;;16.27;100.00
5996;BME280;3026;53.612;7.278;2022-08-11T05:21:30;102388.06;;;16.31;100.00
5996;BME280;3026;53.612;7.278;2022-08-11T05:24:19;102387.41;;;16.38;100.00
5996;BME280;3026;53.612;7.278;2022-08-11T05:27:22;102388.44;;;16.45;100.00
5996;BME280;3026;53.612;7.278;2022-08-11T05:30:11;102390.47;;;16.51;100.00
5996;BME280;3026;53.612;7.278;2022-08-11T05:32:58;102388.75;;;16.58;100.00
5996;BME280;3026;53.612;7.278;2022-08-11T05:35:46;102392.50;;;16.65;100.00
5996;BME280;3026;53.612;7.278;2022-08-11T05:38:17;102385.31;;;16.72;100.00
5996;BME280;3026;53.612;7.278;2022-08-11T05:41:05;102388.38;;;16.77;100.00
5996;BME280;3026;53.612;7.278;2022-08-11T05:43:51;102387.69;;;16.83;100.00
5996;BME280;3026;53.612;7.278;2022-08-11T05:46:38;102387.31;;;16.95;100.00
5996;BME280;3026;53.612;7.278;2022-08-11T05:49:22;102385.22;;;17.05;100.00
5996;BME280;3026;53.612;7.278;2022-08-11T05:52:13;102382.94;;;17.16;100.00
5996;BME280;3026;53.612;7.278;2022-08-11T05:55:01;102383.59;;;17.27;100.00
5996;BME280;3026;53.612;7.278;2022-08-11T05:57:47;102387.13;;;17.35;100.00
5996;BME280;3026;53.612;7.278;2022-08-11T06:00:17;102383.97;;;17.46;100.00
5996;BME280;3026;53.612;7.278;2022-08-11T06:02:50;102383.75;;;17.56;100.00
5996;BME280;3026;53.612;7.278;2022-08-11T06:05:19;102381.81;;;17.65;100.00
5996;BME280;3026;53.612;7.278;2022-08-11T06:07:47;102379.03;;;17.73;100.00
5996;BME280;3026;53.612;7.278;2022-08-11T06:10:24;102383.44;;;17.82;100.00
5996;BME280;3026;53.612;7.278;2022-08-11T06:12:52;102382.34;;;17.91;100.00
5996;BME280;3026;53.612;7.278;2022-08-11T06:15:22;102374.50;;;18.03;100.00
5996;BME280;3026;53.612;7.278;2022-08-11T06:17:51;102390.81;;;18.13;100.00
5996;BME280;3026;53.612;7.278;2022-08-11T06:20:19;102379.72;;;18.21;100.00
5996;BME280;3026;53.612;7.278;2022-08-11T06:22:49;102377.91;;;18.28;100.00
5996;BME280;3026;53.612;7.278;2022-08-11T06:25:22;102383.16;;;18.37;100.00
5996;BME280;3026;53.612;7.278;2022-08-11T06:27:55;102370.16;;;18.46;100.00
5996;BME280;3026;53.612;7.278;2022-08-11T06:30:33;102377.59;;;18.60;100.00
5996;BME280;3026;53.612;7.278;2022-08-11T06:33:07;102380.78;;;18.72;100.00
5996;BME280;3026;53.612;7.278;2022-08-11T06:35:43;102378.78;;;18.81;100.00
5996;BME280;3026;53.612;7.278;2022-08-11T06:38:22;102381.47;;;18.89;100.00
5996;BME280;3026;53.612;7.278;2022-08-11T06:40:56;102387.59;;;18.99;100.00
5996;BME280;3026;53.612;7.278;2022-08-11T06:43:48;102380.69;;;19.10;100.00
5996;BME280;3026;53.612;7.278;2022-08-11T06:46:24;102390.03;;;19.23;100.00
5996;BME280;3026;53.612;7.278;2022-08-11T06:48:53;102381.72;;;19.38;100.00
5996;BME280;3026;53.612;7.278;2022-08-11T06:51:20;102384.84;;;19.50;100.00
5996;BME280;3026;53.612;7.278;2022-08-11T06:53:49;102386.09;;;19.62;100.00
5996;BME280;3026;53.612;7.278;2022-08-11T06:56:23;102383.47;;;19.75;100.00
5996;BME280;3026;53.612;7.278;2022-08-11T06:59:10;102390.84;;;19.90;100.00
5996;BME280;3026;53.612;7.278;2022-08-11T07:02:10;102388.91;;;20.05;100.00
5996;BME280;3026;53.612;7.278;2022-08-11T07:04:42;102392.44;;;20.20;100.00
5996;BME280;3026;53.612;7.278;2022-08-11T07:10:48;102392.31;;;20.50;100.00
5996;BME280;3026;53.612;7.278;2022-08-11T07:13:38;102388.16;;;20.67;100.00
5996;BME280;3026;53.612;7.278;2022-08-11T07:16:26;102393.38;;;20.83;100.00
5996;BME280;3026;53.612;7.278;2022-08-11T07:19:00;102397.16;;;21.04;100.00
5996;BME280;3026;53.612;7.278;2022-08-11T07:21:45;102395.34;;;21.24;100.00
5996;BME280;3026;53.612;7.278;2022-08-11T07:24:35;102390.16;;;21.42;100.00
5996;BME280;3026;53.612;7.278;2022-08-11T07:27:22;102390.84;;;21.58;100.00
5996;BME280;3026;53.612;7.278;2022-08-11T07:30:09;102395.34;;;21.72;100.00
5996;BME280;3026;53.612;7.278;2022-08-11T07:32:40;102396.50;;;21.91;100.00
5996;BME280;3026;53.612;7.278;2022-08-11T07:35:11;102398.28;;;22.11;100.00
5996;BME280;3026;53.612;7.278;2022-08-11T07:37:40;102395.94;;;22.35;100.00
5996;BME280;3026;53.612;7.278;2022-08-11T07:40:10;102387.16;;;22.58;100.00
5996;BME280;3026;53.612;7.278;2022-08-11T07:42:37;102384.16;;;22.73;100.00
5996;BME280;3026;53.612;7.278;2022-08-11T07:45:07;102393.13;;;22.88;100.00
5996;BME280;3026;53.612;7.278;2022-08-11T07:47:55;102396.50;;;23.10;100.00
5996;BME280;3026;53.612;7.278;2022-08-11T07:50:42;102389.66;;;23.12;100.00
5996;BME280;3026;53.612;7.278;2022-08-11T07:53:27;102394.47;;;23.37;100.00
5996;BME280;3026;53.612;7.278;2022-08-11T07:55:57;102391.22;;;23.53;100.00
5996;BME280;3026;53.612;7.278;2022-08-11T07:58:25;102394.13;;;23.71;100.00
5996;BME280;3026;53.612;7.278;2022-08-11T08:01:10;102404.91;;;23.99;100.00
5996;BME280;3026;53.612;7.278;2022-08-11T08:03:57;102401.97;;;24.19;100.00
5996;BME280;3026;53.612;7.278;2022-08-11T08:06:43;102410.81;;;24.48;100.00
5996;BME280;3026;53.612;7.278;2022-08-11T08:09:32;102397.00;;;24.53;100.00
5996;BME280;3026;53.612;7.278;2022-08-11T08:12:19;102398.72;;;24.54;100.00
5996;BME280;3026;53.612;7.278;2022-08-11T08:15:06;102402.38;;;24.79;100.00
5996;BME280;3026;53.612;7.278;2022-08-11T08:17:54;102397.88;;;24.96;100.00
5996;BME280;3026;53.612;7.278;2022-08-11T08:20:25;102399.03;;;25.14;100.00
5996;BME280;3026;53.612;7.278;2022-08-11T08:22:56;102402.28;;;25.29;100.00
5996;BME280;3026;53.612;7.278;2022-08-11T08:25:25;102413.09;;;25.55;100.00
5996;BME280;3026;53.612;7.278;2022-08-11T08:27:53;102409.00;;;25.76;100.00
5996;BME280;3026;53.612;7.278;2022-08-11T08:30:21;102402.78;;;25.74;100.00
5996;BME280;3026;53.612;7.278;2022-08-11T08:33:06;102409.31;;;25.98;100.00
5996;BME280;3026;53.612;7.278;2022-08-11T08:35:35;102410.75;;;26.31;100.00
5996;BME280;3026;53.612;7.278;2022-08-11T08:38:04;102415.19;;;26.50;100.00
5996;BME280;3026;53.612;7.278;2022-08-11T08:40:31;102410.59;;;26.67;100.00
5996;BME280;3026;53.612;7.278;2022-08-11T08:43:04;102408.41;;;26.93;100.00
5996;BME280;3026;53.612;7.278;2022-08-11T08:45:35;102406.34;;;27.00;100.00
5996;BME280;3026;53.612;7.278;2022-08-11T08:48:07;102405.25;;;27.24;100.00
5996;BME280;3026;53.612;7.278;2022-08-11T08:50:36;102408.88;;;27.37;95.81
5996;BME280;3026;53.612;7.278;2022-08-11T08:53:26;102413.69;;;27.53;96.27
5996;BME280;3026;53.612;7.278;2022-08-11T08:55:57;102404.38;;;27.64;94.05
5996;BME280;3026;53.612;7.278;2022-08-11T08:58:25;102406.03;;;27.88;87.41
5996;BME280;3026;53.612;7.278;2022-08-11T09:01:01;102408.44;;;27.97;88.42
5996;BME280;3026;53.612;7.278;2022-08-11T09:03:29;102410.84;;;28.05;90.26
5996;BME280;3026;53.612;7.278;2022-08-11T09:05:58;102416.63;;;28.15;93.41
5996;BME280;3026;53.612;7.278;2022-08-11T09:08:26;102399.69;;;28.38;89.57
5996;BME280;3026;53.612;7.278;2022-08-11T09:10:56;102402.47;;;28.55;87.57
5996;BME280;3026;53.612;7.278;2022-08-11T09:13:41;102403.91;;;28.58;86.37
5996;BME280;3026;53.612;7.278;2022-08-11T09:16:11;102402.56;;;28.77;81.20
5996;BME280;3026;53.612;7.278;2022-08-11T09:18:40;102406.81;;;28.96;80.20
5996;BME280;3026;53.612;7.278;2022-08-11T09:21:11;102401.19;;;28.80;80.40
5996;BME280;3026;53.612;7.278;2022-08-11T09:23:41;102409.03;;;28.94;82.33
5996;BME280;3026;53.612;7.278;2022-08-11T09:26:26;102406.06;;;29.23;80.88
5996;BME280;3026;53.612;7.278;2022-08-11T09:29:12;102410.50;;;29.19;79.43
5996;BME280;3026;53.612;7.278;2022-08-11T09:31:39;102406.44;;;29.10;76.98
5996;BME280;3026;53.612;7.278;2022-08-11T09:34:08;102392.59;;;29.25;76.98
5996;BME280;3026;53.612;7.278;2022-08-11T09:36:37;102394.19;;;29.59;74.61
5996;BME280;3026;53.612;7.278;2022-08-11T09:39:37;102400.72;;;29.87;72.46
5996;BME280;3026;53.612;7.278;2022-08-11T09:42:22;102400.41;;;30.10;70.33
5996;BME280;3026;53.612;7.278;2022-08-11T09:45:10;102399.09;;;29.96;71.71
5996;BME280;3026;53.612;7.278;2022-08-11T09:47:37;102393.91;;;30.10;73.29
5996;BME280;3026;53.612;7.278;2022-08-11T09:50:07;102398.31;;;30.28;74.25
5996;BME280;3026;53.612;7.278;2022-08-11T09:52:37;102393.44;;;30.50;71.40
5996;BME280;3026;53.612;7.278;2022-08-11T09:55:07;102391.34;;;30.67;68.78
5996;BME280;3026;53.612;7.278;2022-08-11T09:57:37;102400.41;;;30.74;67.81
5996;BME280;3026;53.612;7.278;2022-08-11T10:00:27;102402.09;;;30.75;63.83
5996;BME280;3026;53.612;7.278;2022-08-11T10:02:55;102396.47;;;30.75;63.17
5996;BME280;3026;53.612;7.278;2022-08-11T10:05:22;102398.78;;;30.84;64.90
5996;BME280;3026;53.612;7.278;2022-08-11T10:08:11;102389.84;;;30.92;62.06
5996;BME280;3026;53.612;7.278;2022-08-11T10:10:39;102392.06;;;30.90;61.71
5996;BME280;3026;53.612;7.278;2022-08-11T10:13:09;102388.72;;;30.98;61.11
5996;BME280;3026;53.612;7.278;2022-08-11T10:15:36;102391.34;;;31.10;61.77
5996;BME280;3026;53.612;7.278;2022-08-11T10:18:05;102386.41;;;31.37;60.63
5996;BME280;3026;53.612;7.278;2022-08-11T10:20:51;102381.13;;;31.51;59.97
5996;BME280;3026;53.612;7.278;2022-08-11T10:23:21;102374.84;;;31.33;59.01
5996;BME280;3026;53.612;7.278;2022-08-11T10:26:07;102379.63;;;31.28;59.48
5996;BME280;3026;53.612;7.278;2022-08-11T10:28:53;102389.94;;;31.12;60.79
5996;BME280;3026;53.612;7.278;2022-08-11T10:31:20;102375.97;;;31.27;60.33
5996;BME280;3026;53.612;7.278;2022-08-11T10:34:06;102381.06;;;31.35;57.02
5996;BME280;3026;53.612;7.278;2022-08-11T10:36:36;102375.47;;;31.41;56.71
5996;BME280;3026;53.612;7.278;2022-08-11T10:39:08;102382.84;;;31.52;54.38
5996;BME280;3026;53.612;7.278;2022-08-11T10:41:38;102376.88;;;31.48;55.80
5996;BME280;3026;53.612;7.278;2022-08-11T10:44:23;102371.59;;;31.62;55.05
5996;BME280;3026;53.612;7.278;2022-08-11T10:46:51;102369.88;;;31.51;54.56
5996;BME280;3026;53.612;7.278;2022-08-11T10:49:35;102365.38;;;31.65;54.77
5996;BME280;3026;53.612;7.278;2022-08-11T10:52:03;102356.72;;;31.87;54.29
5996;BME280;3026;53.612;7.278;2022-08-11T10:54:48;102355.91;;;31.97;53.65
5996;BME280;3026;53.612;7.278;2022-08-11T10:57:34;102361.00;;;32.10;52.98
5996;BME280;3026;53.612;7.278;2022-08-11T11:00:19;102362.66;;;32.01;51.72
5996;BME280;3026;53.612;7.278;2022-08-11T11:02:49;102358.97;;;31.90;50.99
5996;BME280;3026;53.612;7.278;2022-08-11T11:05:21;102363.09;;;31.57;52.60
5996;BME280;3026;53.612;7.278;2022-08-11T11:07:54;102353.78;;;31.51;51.58
5996;BME280;3026;53.612;7.278;2022-08-11T11:10:22;102353.50;;;31.58;51.79
5996;BME280;3026;53.612;7.278;2022-08-11T11:12:53;102354.66;;;31.72;50.69
5996;BME280;3026;53.612;7.278;2022-08-11T11:15:41;102349.09;;;31.82;50.57
5996;BME280;3026;53.612;7.278;2022-08-11T11:18:30;102349.66;;;31.79;51.82
5996;BME280;3026;53.612;7.278;2022-08-11T11:21:05;102352.78;;;31.88;51.12
5996;BME280;3026;53.612;7.278;2022-08-11T11:23:37;102347.13;;;31.88;50.39
5996;BME280;3026;53.612;7.278;2022-08-11T11:26:29;102348.72;;;31.53;50.04
5996;BME280;3026;53.612;7.278;2022-08-11T11:29:28;102351.75;;;31.36;51.99
5996;BME280;3026;53.612;7.278;2022-08-11T11:32:14;102350.09;;;31.46;52.53
5996;BME280;3026;53.612;7.278;2022-08-11T11:37:48;102349.53;;;31.49;50.96
5996;BME280;3026;53.612;7.278;2022-08-11T11:40:17;102345.63;;;31.50;50.14
5996;BME280;3026;53.612;7.278;2022-08-11T11:42:47;102344.53;;;31.61;50.70
5996;BME280;3026;53.612;7.278;2022-08-11T11:45:19;102347.88;;;31.58;51.92
5996;BME280;3026;53.612;7.278;2022-08-11T11:47:46;102330.47;;;31.81;52.02
5996;BME280;3026;53.612;7.278;2022-08-11T11:50:22;102336.41;;;31.80;51.06
5996;BME280;3026;53.612;7.278;2022-08-11T11:52:50;102329.34;;;31.82;52.36
5996;BME280;3026;53.612;7.278;2022-08-11T11:55:20;102335.56;;;31.74;55.16
5996;BME280;3026;53.612;7.278;2022-08-11T11:57:49;102336.13;;;31.91;56.12
5996;BME280;3026;53.612;7.278;2022-08-11T12:00:36;102329.38;;;31.87;56.47
5996;BME280;3026;53.612;7.278;2022-08-11T12:03:22;102326.47;;;31.72;57.01
5996;BME280;3026;53.612;7.278;2022-08-11T12:05:51;102322.00;;;31.76;59.04
5996;BME280;3026;53.612;7.278;2022-08-11T12:08:18;102321.44;;;31.79;59.25
5996;BME280;3026;53.612;7.278;2022-08-11T12:10:48;102322.03;;;31.91;60.31
5996;BME280;3026;53.612;7.278;2022-08-11T12:13:37;102319.22;;;31.86;61.40
5996;BME280;3026;53.612;7.278;2022-08-11T12:16:10;102322.00;;;31.76;61.57
5996;BME280;3026;53.612;7.278;2022-08-11T12:18:39;102317.44;;;31.60;62.44
5996;BME280;3026;53.612;7.278;2022-08-11T12:21:07;102314.53;;;31.34;62.18
5996;BME280;3026;53.612;7.278;2022-08-11T12:23:37;102316.00;;;31.42;63.10
5996;BME280;3026;53.612;7.278;2022-08-11T12:26:30;102315.72;;;31.49;62.88
5996;BME280;3026;53.612;7.278;2022-08-11T12:29:16;102310.66;;;31.56;62.98
5996;BME280;3026;53.612;7.278;2022-08-11T12:31:46;102311.78;;;31.60;63.78
5996;BME280;3026;53.612;7.278;2022-08-11T12:34:15;102309.56;;;31.67;62.67
5996;BME280;3026;53.612;7.278;2022-08-11T12:36:45;102308.41;;;31.58;62.83
5996;BME280;3026;53.612;7.278;2022-08-11T12:39:18;102306.97;;;31.40;61.73
5996;BME280;3026;53.612;7.278;2022-08-11T12:42:06;102312.84;;;31.28;61.64
5996;BME280;3026;53.612;7.278;2022-08-11T12:44:52;102311.69;;;31.19;61.13
5996;BME280;3026;53.612;7.278;2022-08-11T12:47:52;102307.09;;;31.03;62.54
5996;BME280;3026;53.612;7.278;2022-08-11T12:50:36;102300.84;;;30.96;62.83
5996;BME280;3026;53.612;7.278;2022-08-11T12:53:24;102301.97;;;31.00;61.40
5996;BME280;3026;53.612;7.278;2022-08-11T12:55:54;102300.84;;;30.96;61.41
5996;BME280;3026;53.612;7.278;2022-08-11T12:58:40;102298.88;;;30.91;62.08
5996;BME280;3026;53.612;7.278;2022-08-11T13:01:08;102299.16;;;31.00;61.14
5996;BME280;3026;53.612;7.278;2022-08-11T13:03:55;102294.38;;;30.95;60.14
5996;BME280;3026;53.612;7.278;2022-08-11T13:06:40;102286.19;;;30.94;60.45
5996;BME280;3026;53.612;7.278;2022-08-11T13:09:09;102289.03;;;30.99;59.50
5996;BME280;3026;53.612;7.278;2022-08-11T13:11:38;102289.91;;;31.04;59.54
5996;BME280;3026;53.612;7.278;2022-08-11T13:14:24;102290.72;;;31.00;58.67
5996;BME280;3026;53.612;7.278;2022-08-11T13:16:51;102297.41;;;30.84;58.00
5996;BME280;3026;53.612;7.278;2022-08-11T13:19:37;102296.22;;;30.74;57.00
5996;BME280;3026;53.612;7.278;2022-08-11T13:22:04;102293.97;;;30.71;58.34
5996;BME280;3026;53.612;7.278;2022-08-11T13:24:31;102288.28;;;30.66;57.70
5996;BME280;3026;53.612;7.278;2022-08-11T13:27:00;102293.91;;;30.66;56.87
5996;BME280;3026;53.612;7.278;2022-08-11T13:29:28;102296.13;;;30.59;57.26
5996;BME280;3026;53.612;7.278;2022-08-11T13:31:56;102291.00;;;30.56;57.88
5996;BME280;3026;53.612;7.278;2022-08-11T13:34:25;102288.19;;;30.51;56.88
5996;BME280;3026;53.612;7.278;2022-08-11T13:36:57;102286.47;;;30.50;57.33
5996;BME280;3026;53.612;7.278;2022-08-11T13:39:27;102289.88;;;30.52;57.52
5996;BME280;3026;53.612;7.278;2022-08-11T13:41:57;102289.28;;;30.45;56.28
5996;BME280;3026;53.612;7.278;2022-08-11T13:44:26;102292.03;;;30.40;56.33
5996;BME280;3026;53.612;7.278;2022-08-11T13:46:56;102288.03;;;30.31;55.79
5996;BME280;3026;53.612;7.278;2022-08-11T13:49:26;102282.41;;;30.31;56.57
5996;BME280;3026;53.612;7.278;2022-08-11T13:51:54;102275.09;;;30.30;57.32
5996;BME280;3026;53.612;7.278;2022-08-11T13:54:25;102275.09;;;30.30;56.45
5996;BME280;3026;53.612;7.278;2022-08-11T13:56:54;102269.72;;;30.28;57.24
5996;BME280;3026;53.612;7.278;2022-08-11T13:59:22;102267.75;;;30.24;55.82
5996;BME280;3026;53.612;7.278;2022-08-11T14:01:53;102275.00;;;30.19;55.05
5996;BME280;3026;53.612;7.278;2022-08-11T14:04:25;102266.44;;;30.04;54.67
5996;BME280;3026;53.612;7.278;2022-08-11T14:06:55;102259.66;;;30.00;54.82
5996;BME280;3026;53.612;7.278;2022-08-11T14:09:27;102269.22;;;29.99;55.16
5996;BME280;3026;53.612;7.278;2022-08-11T14:11:57;102267.50;;;29.98;55.49
5996;BME280;3026;53.612;7.278;2022-08-11T14:14:47;102262.41;;;29.95;55.03
5996;BME280;3026;53.612;7.278;2022-08-11T14:17:16;102262.41;;;29.95;55.53
5996;BME280;3026;53.612;7.278;2022-08-11T14:19:46;102264.38;;;29.95;55.75
5996;BME280;3026;53.612;7.278;2022-08-11T14:22:18;102267.44;;;29.88;54.04
5996;BME280;3026;53.612;7.278;2022-08-11T14:24:47;102260.03;;;29.77;54.12
5996;BME280;3026;53.612;7.278;2022-08-11T14:27:15;102248.13;;;29.70;54.09
5996;BME280;3026;53.612;7.278;2022-08-11T14:29:44;102259.91;;;29.67;54.45
5996;BME280;3026;53.612;7.278;2022-08-11T14:32:12;102248.13;;;29.70;54.24
5996;BME280;3026;53.612;7.278;2022-08-11T14:34:42;102256.00;;;29.68;53.97
5996;BME280;3026;53.612;7.278;2022-08-11T14:37:11;102255.94;;;29.62;53.59
5996;BME280;3026;53.612;7.278;2022-08-11T14:39:43;102255.34;;;29.60;55.41
5996;BME280;3026;53.612;7.278;2022-08-11T14:42:13;102251.66;;;29.55;55.50
5996;BME280;3026;53.612;7.278;2022-08-11T14:44:59;102246.25;;;29.48;54.69